createdAt,value
2019-02-21T00:02:17.774Z,11.40
2019-02-21T00:05:06.606Z,9.90
2019-02-21T00:07:54.578Z,10.57
2019-02-21T00:10:42.767Z,11.10
2019-02-21T00:13:30.668Z,9.87
2019-02-21T00:16:18.610Z,9.33
2019-02-21T00:19:06.167Z,10.30
2019-02-21T00:21:54.178Z,9.63
2019-02-21T00:24:41.911Z,11.63
2019-02-21T00:27:29.750Z,10.70
2019-02-21T00:30:17.969Z,11.07
2019-02-21T00:33:05.762Z,9.53
2019-02-21T00:35:53.439Z,10.23
2019-02-21T00:38:41.527Z,10.10
2019-02-21T00:41:29.460Z,11.13
2019-02-21T00:44:17.635Z,11.30
2019-02-21T00:47:05.734Z,10.90
2019-02-21T00:49:53.378Z,13.80
2019-02-21T00:52:41.650Z,11.60
2019-02-21T00:55:29.798Z,11.90
2019-02-21T00:58:17.797Z,10.20
2019-02-21T01:01:05.631Z,11.30
2019-02-21T01:03:53.533Z,12.30
2019-02-21T01:06:41.593Z,11.40
2019-02-21T01:09:29.468Z,13.13
2019-02-21T01:12:17.326Z,12.40
2019-02-21T01:15:24.414Z,11.40
2019-02-21T01:18:12.159Z,12.30
2019-02-21T01:21:00.793Z,12.73
2019-02-21T01:23:48.639Z,11.97
2019-02-21T01:26:36.747Z,12.73
2019-02-21T01:29:24.847Z,11.47
2019-02-21T01:32:12.783Z,13.20
2019-02-21T01:35:00.486Z,12.10
2019-02-21T01:37:48.344Z,13.30
2019-02-21T01:40:36.191Z,11.90
2019-02-21T01:43:23.829Z,12.70
2019-02-21T01:46:11.894Z,11.30
2019-02-21T01:48:59.593Z,13.30
2019-02-21T01:51:47.490Z,11.60
2019-02-21T01:54:35.854Z,10.63
2019-02-21T01:57:23.931Z,13.37
2019-02-21T02:00:12.563Z,12.47
2019-02-21T02:03:00.499Z,13.53
2019-02-21T02:05:48.540Z,11.50
2019-02-21T02:08:36.919Z,12.33
2019-02-21T02:11:24.998Z,11.70
2019-02-21T02:14:13.415Z,12.50
2019-02-21T02:17:01.094Z,11.20
2019-02-21T02:19:49.066Z,11.20
2019-02-21T02:22:36.999Z,12.37
2019-02-21T02:25:24.952Z,12.90
2019-02-21T02:28:17.595Z,11.50
2019-02-21T02:31:05.479Z,11.33
2019-02-21T02:33:54.075Z,11.90
2019-02-21T02:36:41.982Z,11.10
2019-02-21T02:39:29.608Z,11.60
2019-02-21T02:42:17.636Z,12.37
2019-02-21T02:45:07.407Z,11.33
2019-02-21T02:47:55.818Z,13.40
2019-02-21T02:50:43.870Z,13.17
2019-02-21T02:53:32.374Z,15.57
2019-02-21T02:56:19.974Z,12.47
2019-02-21T02:59:07.765Z,13.13
2019-02-21T03:01:55.902Z,13.53
2019-02-21T03:04:43.741Z,11.13
2019-02-21T03:07:31.587Z,11.90
2019-02-21T03:10:19.027Z,13.37
2019-02-21T03:13:07.153Z,13.17
2019-02-21T03:15:54.879Z,13.07
2019-02-21T03:18:43.026Z,12.73
2019-02-21T03:21:31.218Z,13.27
2019-02-21T03:24:19.489Z,12.80
2019-02-21T03:27:07.957Z,13.67
2019-02-21T03:29:55.644Z,14.63
2019-02-21T03:32:43.529Z,15.20
2019-02-21T03:35:31.170Z,13.10
2019-02-21T03:38:19.027Z,14.33
2019-02-21T03:41:06.644Z,15.30
2019-02-21T03:43:54.440Z,13.17
2019-02-21T03:46:42.274Z,12.60
2019-02-21T03:49:30.399Z,13.20
2019-02-21T03:52:18.721Z,13.63
2019-02-21T03:55:07.643Z,15.13
2019-02-21T03:57:55.871Z,12.83
2019-02-21T04:00:43.975Z,13.93
2019-02-21T04:03:31.775Z,15.23
2019-02-21T04:06:20.258Z,14.20
2019-02-21T04:09:08.783Z,15.33
2019-02-21T04:11:56.542Z,16.30
2019-02-21T04:14:44.152Z,14.27
2019-02-21T04:17:32.354Z,14.93
2019-02-21T04:20:20.231Z,16.60
2019-02-21T04:23:08.020Z,13.80
2019-02-21T04:25:55.963Z,16.07
2019-02-21T04:28:45.809Z,14.90
2019-02-21T04:31:32.798Z,14.30
2019-02-21T04:34:20.446Z,14.30
2019-02-21T04:37:08.748Z,16.30
2019-02-21T04:39:56.571Z,14.20
2019-02-21T04:42:44.446Z,14.90
2019-02-21T04:45:32.063Z,13.03
2019-02-21T04:48:19.948Z,16.97
2019-02-21T04:51:27.352Z,16.20
2019-02-21T04:54:15.359Z,13.70
2019-02-21T04:57:03.380Z,15.03
2019-02-21T04:59:51.238Z,15.60
2019-02-21T05:02:39.208Z,14.03
2019-02-21T05:05:27.446Z,13.43
2019-02-21T05:08:15.259Z,14.47
2019-02-21T05:11:03.023Z,15.00
2019-02-21T05:13:50.667Z,13.63
2019-02-21T05:16:39.070Z,15.20
2019-02-21T05:19:27.401Z,16.50
2019-02-21T05:22:14.983Z,14.67
2019-02-21T05:25:02.813Z,13.97
2019-02-21T05:27:52.226Z,13.53
2019-02-21T05:30:39.954Z,15.30
2019-02-21T05:33:38.390Z,16.03
2019-02-21T05:36:33.585Z,16.00
2019-02-21T05:39:35.158Z,14.70
2019-02-21T05:42:29.867Z,14.73
2019-02-21T05:45:34.953Z,15.33
2019-02-21T05:48:24.777Z,16.17
2019-02-21T05:51:13.876Z,14.53
2019-02-21T05:54:19.460Z,16.77
2019-02-21T05:57:25.974Z,14.30
2019-02-21T06:00:30.867Z,14.60
2019-02-21T06:03:29.183Z,15.70
2019-02-21T06:06:18.959Z,14.20
2019-02-21T06:09:09.503Z,16.27
2019-02-21T06:12:04.835Z,13.37
2019-02-21T06:14:54.259Z,16.03
2019-02-21T06:17:43.589Z,14.03
2019-02-21T06:20:33.897Z,14.73
2019-02-21T06:23:29.266Z,16.17
2019-02-21T06:26:18.699Z,14.33
2019-02-21T06:29:09.822Z,13.97
2019-02-21T06:31:57.507Z,15.27
2019-02-21T06:34:45.466Z,16.33
2019-02-21T06:37:33.382Z,15.97
2019-02-21T06:40:21.287Z,14.40
2019-02-21T06:43:09.254Z,14.70
2019-02-21T06:45:58.109Z,15.70
2019-02-21T06:48:46.301Z,15.93
2019-02-21T06:51:34.094Z,16.30
2019-02-21T06:54:22.633Z,16.87
2019-02-21T06:57:10.783Z,17.90
2019-02-21T06:59:58.694Z,17.23
2019-02-21T07:02:46.698Z,15.43
2019-02-21T07:05:36.858Z,15.50
2019-02-21T07:08:25.182Z,16.70
2019-02-21T07:11:13.458Z,16.90
2019-02-21T07:14:01.847Z,17.20
2019-02-21T07:16:49.482Z,16.07
2019-02-21T07:19:37.596Z,17.07
2019-02-21T07:22:25.726Z,15.70
2019-02-21T07:25:17.999Z,14.67
2019-02-21T07:28:11.744Z,15.90
2019-02-21T07:30:54.951Z,16.13
2019-02-21T07:33:42.994Z,16.63
2019-02-21T07:36:31.078Z,16.90
2019-02-21T07:39:20.845Z,17.80
2019-02-21T07:42:07.632Z,19.40
2019-02-21T07:44:55.621Z,18.80
2019-02-21T07:47:43.827Z,17.40
2019-02-21T07:50:32.574Z,16.53
2019-02-21T07:53:20.075Z,17.20
2019-02-21T07:56:07.868Z,15.30
2019-02-21T07:58:57.670Z,17.23
2019-02-21T11:59:19.190Z,13.00
2019-02-21T12:02:07.290Z,14.83
2019-02-21T12:04:36.736Z,14.07
2019-02-21T12:07:06.526Z,14.40
2019-02-21T12:09:35.830Z,13.35
2019-02-21T12:26:58.154Z,11.17
2019-02-21T12:29:27.263Z,11.47
2019-02-21T12:31:57.739Z,12.43
2019-02-21T12:34:27.363Z,13.40
2019-02-21T12:36:57.030Z,10.80
2019-02-21T12:39:26.949Z,11.73
2019-02-21T12:41:56.706Z,12.20
2019-02-21T12:44:26.641Z,12.63
2019-02-21T12:46:56.521Z,11.77
2019-02-21T12:54:24.732Z,10.80
2019-02-21T12:56:54.885Z,10.80
2019-02-21T12:59:24.712Z,8.83
